createdAt,value
2019-04-01T00:02:17.264Z,3.55
2019-04-01T00:04:43.606Z,3.43
2019-04-01T00:07:09.840Z,3.41
2019-04-01T00:09:36.517Z,3.35
2019-04-01T00:12:03.827Z,3.33
2019-04-01T00:14:29.951Z,3.17
2019-04-01T00:16:56.087Z,3.20
2019-04-01T00:19:22.476Z,3.28
2019-04-01T00:21:48.828Z,3.32
2019-04-01T00:24:15.070Z,3.23
2019-04-01T00:26:41.288Z,3.22
2019-04-01T00:29:07.615Z,3.18
2019-04-01T00:31:33.864Z,3.23
2019-04-01T00:34:00.004Z,3.21
2019-04-01T00:36:26.177Z,3.23
2019-04-01T00:38:52.439Z,3.17
2019-04-01T00:41:18.719Z,3.15
2019-04-01T00:43:55.445Z,3.11
2019-04-01T00:46:22.026Z,3.07
2019-04-01T00:48:48.306Z,3.05
2019-04-01T00:51:14.642Z,3.03
2019-04-01T00:53:41.006Z,2.99
2019-04-01T00:56:07.147Z,2.98
2019-04-01T00:58:33.500Z,3.02
2019-04-01T01:00:59.808Z,2.95
2019-04-01T01:03:26.055Z,2.98
2019-04-01T01:05:53.171Z,3.00
2019-04-01T01:08:19.308Z,2.85
2019-04-01T01:10:45.407Z,2.84
2019-04-01T01:13:11.516Z,2.81
2019-04-01T01:15:37.648Z,2.87
2019-04-01T01:18:03.904Z,2.84
2019-04-01T01:20:30.150Z,2.82
2019-04-01T01:22:56.468Z,2.75
2019-04-01T01:25:22.768Z,2.69
2019-04-01T01:27:49.116Z,2.73
2019-04-01T01:30:15.536Z,2.72
2019-04-01T01:32:41.785Z,2.70
2019-04-01T01:35:08.596Z,2.66
2019-04-01T01:37:34.821Z,2.67
2019-04-01T01:40:01.259Z,2.60
2019-04-01T01:42:28.482Z,2.59
2019-04-01T01:44:54.658Z,2.51
2019-04-01T01:47:20.879Z,2.44
2019-04-01T01:49:47.113Z,2.49
2019-04-01T01:52:13.221Z,2.42
2019-04-01T01:54:39.452Z,2.51
2019-04-01T01:57:05.646Z,2.44
2019-04-01T01:59:31.885Z,2.47
2019-04-01T02:01:58.032Z,2.39
2019-04-01T02:04:24.345Z,2.43
2019-04-01T02:06:50.774Z,2.35
2019-04-01T02:09:17.066Z,2.38
2019-04-01T02:11:43.336Z,2.36
2019-04-01T02:14:09.636Z,2.37
2019-04-01T02:16:35.857Z,2.29
2019-04-01T02:19:02.794Z,2.32
2019-04-01T02:21:29.070Z,2.32
2019-04-01T02:23:55.201Z,2.38
2019-04-01T02:26:21.297Z,2.26
2019-04-01T02:28:47.400Z,2.21
2019-04-01T02:31:13.666Z,2.15
2019-04-01T02:33:39.778Z,2.12
2019-04-01T02:36:06.079Z,2.18
2019-04-01T02:38:32.348Z,2.21
2019-04-01T02:40:58.710Z,2.16
2019-04-01T02:43:25.071Z,2.11
2019-04-01T02:45:51.470Z,2.16
2019-04-01T02:48:17.818Z,2.15
2019-04-01T02:50:44.135Z,2.01
2019-04-01T02:53:10.235Z,1.91
2019-04-01T02:55:36.535Z,2.01
2019-04-01T02:58:03.007Z,1.93
2019-04-01T03:00:29.383Z,1.96
2019-04-01T03:02:55.609Z,1.99
2019-04-01T03:05:21.816Z,1.96
2019-04-01T03:07:48.015Z,2.01
2019-04-01T03:10:14.457Z,1.89
2019-04-01T03:12:40.688Z,1.86
2019-04-01T03:15:07.136Z,1.79
2019-04-01T03:17:33.266Z,1.78
2019-04-01T03:19:59.640Z,1.69
2019-04-01T03:22:25.896Z,1.73
2019-04-01T03:24:52.109Z,1.68
2019-04-01T03:27:18.434Z,1.66
2019-04-01T03:29:44.600Z,1.60
2019-04-01T03:32:10.756Z,1.68
2019-04-01T03:34:36.901Z,1.77
2019-04-01T03:37:03.079Z,1.72
2019-04-01T03:39:29.308Z,1.63
2019-04-01T03:41:55.410Z,1.12
2019-04-01T03:44:21.726Z,0.86
2019-04-01T03:46:47.849Z,0.90
2019-04-01T03:49:14.037Z,1.00
2019-04-01T03:51:40.467Z,1.01
2019-04-01T03:54:06.763Z,0.99
2019-04-01T03:56:33.037Z,1.01
2019-04-01T03:58:59.333Z,1.04
2019-04-01T04:01:30.032Z,1.03
2019-04-01T04:03:53.644Z,1.13
2019-04-01T04:06:19.963Z,1.05
2019-04-01T04:08:46.326Z,1.01
2019-04-01T04:11:12.738Z,0.94
2019-04-01T04:13:39.051Z,0.95
2019-04-01T04:16:05.421Z,0.98
2019-04-01T04:18:31.732Z,0.99
2019-04-01T04:20:57.949Z,0.96
2019-04-01T04:23:24.111Z,0.97
2019-04-01T04:25:50.629Z,1.00
2019-04-01T04:28:17.255Z,1.01
2019-04-01T04:30:43.614Z,1.02
2019-04-01T04:33:09.882Z,1.06
2019-04-01T04:35:36.030Z,1.03
2019-04-01T04:38:02.408Z,1.03
2019-04-01T04:40:28.808Z,1.03
2019-04-01T04:42:55.243Z,1.04
2019-04-01T04:45:21.619Z,1.06
2019-04-01T04:47:47.961Z,1.11
2019-04-01T04:50:14.211Z,1.16
2019-04-01T04:52:40.563Z,1.17
2019-04-01T04:55:06.911Z,1.18
2019-04-01T04:57:33.215Z,1.09
2019-04-01T04:59:59.463Z,1.12
2019-04-01T05:02:25.760Z,1.22
2019-04-01T05:04:51.963Z,1.26
2019-04-01T05:07:18.288Z,1.23
2019-04-01T05:09:45.677Z,1.23
2019-04-01T05:12:13.248Z,1.29
2019-04-01T05:14:39.435Z,1.30
2019-04-01T05:17:05.771Z,1.38
2019-04-01T05:19:32.440Z,1.38
2019-04-01T05:21:58.753Z,1.42
2019-04-01T05:24:25.422Z,1.47
2019-04-01T05:26:51.857Z,1.44
2019-04-01T05:29:20.276Z,1.45
2019-04-01T05:31:47.730Z,1.59
2019-04-01T05:34:17.679Z,1.64
2019-04-01T05:36:45.284Z,1.71
2019-04-01T05:39:11.715Z,1.74
2019-04-01T05:41:38.025Z,1.79
2019-04-01T05:44:04.461Z,1.83
2019-04-01T05:46:30.808Z,1.89
2019-04-01T05:48:57.403Z,1.99
2019-04-01T05:51:23.753Z,2.11
2019-04-01T05:53:50.043Z,2.29
2019-04-01T05:56:16.354Z,2.37
2019-04-01T05:58:42.663Z,2.46
2019-04-01T06:01:10.956Z,2.66
2019-04-01T06:03:37.366Z,2.81
2019-04-01T06:06:03.683Z,2.98
2019-04-01T06:08:30.000Z,3.16
2019-04-01T06:10:56.507Z,3.37
2019-04-01T06:13:22.886Z,3.58
2019-04-01T06:15:49.228Z,3.76
2019-04-01T06:18:15.517Z,4.18
2019-04-01T06:20:41.714Z,4.46
2019-04-01T06:23:07.811Z,4.46
2019-04-01T06:25:34.181Z,4.41
2019-04-01T06:28:00.398Z,4.79
2019-04-01T06:30:26.722Z,4.78
2019-04-01T06:32:53.179Z,5.44
2019-04-01T06:35:19.405Z,5.39
2019-04-01T06:37:45.829Z,5.52
2019-04-01T06:40:12.112Z,5.34
2019-04-01T06:42:38.539Z,5.38
2019-04-01T06:45:06.537Z,5.32
2019-04-01T06:47:33.462Z,5.12
2019-04-01T06:49:59.796Z,5.58
2019-04-01T06:52:26.013Z,5.58
2019-04-01T06:54:52.215Z,5.83
2019-04-01T06:57:18.420Z,5.94
2019-04-01T06:59:45.234Z,5.68
2019-04-01T07:02:11.448Z,6.09
2019-04-01T07:04:37.669Z,5.93
2019-04-01T07:07:17.897Z,6.05
2019-04-01T07:09:32.626Z,6.13
2019-04-01T07:11:59.046Z,6.31
2019-04-01T07:14:25.373Z,6.52
2019-04-01T07:16:51.602Z,6.65
2019-04-01T07:19:18.018Z,6.91
2019-04-01T07:21:44.329Z,6.96
2019-04-01T07:24:10.832Z,7.16
2019-04-01T07:26:36.955Z,7.03
2019-04-01T07:29:03.251Z,6.66
2019-04-01T07:31:29.551Z,7.13
2019-04-01T07:33:55.895Z,7.18
2019-04-01T07:36:22.541Z,7.54
2019-04-01T07:38:49.856Z,7.95
2019-04-01T07:41:17.276Z,7.84
2019-04-01T07:43:43.606Z,8.05
2019-04-01T07:46:09.849Z,8.04
2019-04-01T07:48:36.067Z,7.87
2019-04-01T07:51:02.402Z,7.90
2019-04-01T07:53:28.724Z,7.83
2019-04-01T07:55:55.036Z,8.39
2019-04-01T07:58:21.615Z,8.34
2019-04-01T08:00:48.038Z,8.48
2019-04-01T08:03:14.447Z,8.86
2019-04-01T08:05:40.664Z,9.20
2019-04-01T08:08:07.109Z,9.01
2019-04-01T08:10:33.439Z,8.88
2019-04-01T08:12:59.735Z,9.10
2019-04-01T08:15:26.021Z,9.01
2019-04-01T08:17:52.240Z,9.00
2019-04-01T08:20:18.767Z,8.78
2019-04-01T08:22:44.965Z,8.77
2019-04-01T08:25:11.144Z,8.93
2019-04-01T08:27:37.438Z,9.15
2019-04-01T08:30:07.901Z,9.40
2019-04-01T08:32:34.731Z,9.38
2019-04-01T08:35:01.593Z,9.43
2019-04-01T08:37:28.167Z,9.59
2019-04-01T08:39:54.462Z,9.73
2019-04-01T08:42:20.834Z,9.93
2019-04-01T08:44:47.137Z,9.76
2019-04-01T08:47:13.448Z,10.00
2019-04-01T08:49:39.889Z,9.89
2019-04-01T08:52:06.221Z,9.90
2019-04-01T08:54:32.546Z,10.16
2019-04-01T08:56:59.169Z,10.58
2019-04-01T08:59:25.689Z,10.58
2019-04-01T09:01:52.016Z,10.79
2019-04-01T09:04:18.529Z,10.46
2019-04-01T09:06:44.843Z,10.47
2019-04-01T09:09:11.099Z,10.46
2019-04-01T09:11:38.626Z,10.83
2019-04-01T09:14:07.011Z,11.05
2019-04-01T09:16:33.679Z,11.31
2019-04-01T09:18:59.895Z,11.37
2019-04-01T09:21:26.136Z,11.66
2019-04-01T09:23:52.514Z,11.24
2019-04-01T09:26:18.806Z,11.47
2019-04-01T09:28:45.137Z,11.44
2019-04-01T09:31:11.474Z,11.20
2019-04-01T09:33:37.702Z,11.93
2019-04-01T09:36:03.947Z,12.10
2019-04-01T09:38:30.188Z,12.02
2019-04-01T09:40:56.476Z,11.81
2019-04-01T09:43:22.589Z,11.82
2019-04-01T09:45:48.957Z,11.87
2019-04-01T09:48:15.185Z,11.72
2019-04-01T09:50:41.475Z,11.93
2019-04-01T09:53:07.825Z,11.70
2019-04-01T09:55:34.162Z,11.78
2019-04-01T09:58:00.680Z,11.85
2019-04-01T10:00:26.992Z,11.51
2019-04-01T10:02:53.337Z,11.58
2019-04-01T10:05:19.673Z,11.97
2019-04-01T10:07:46.217Z,11.88
2019-04-01T10:10:12.745Z,12.39
2019-04-01T10:12:38.858Z,12.34
2019-04-01T10:15:05.529Z,12.33
2019-04-01T10:17:32.289Z,12.48
2019-04-01T10:20:00.855Z,11.96
2019-04-01T10:22:26.776Z,12.12
2019-04-01T10:24:53.075Z,12.38
2019-04-01T10:27:19.311Z,12.62
2019-04-01T10:29:45.462Z,12.49
2019-04-01T10:32:11.697Z,12.29
2019-04-01T10:34:38.058Z,12.49
2019-04-01T10:37:04.477Z,12.70
2019-04-01T10:39:30.957Z,12.44
2019-04-01T10:41:57.310Z,12.45
2019-04-01T10:44:23.701Z,12.79
2019-04-01T10:46:50.008Z,12.45
2019-04-01T10:49:16.578Z,12.82
2019-04-01T10:51:42.856Z,13.11
2019-04-01T10:54:09.146Z,13.12
2019-04-01T10:56:36.045Z,12.63
2019-04-01T10:59:02.481Z,12.90
2019-04-01T11:01:28.825Z,12.93
2019-04-01T11:03:55.140Z,13.12
2019-04-01T11:06:21.880Z,12.53
2019-04-01T11:08:48.093Z,12.69
2019-04-01T11:11:14.296Z,13.10
2019-04-01T11:13:40.522Z,13.24
2019-04-01T11:16:06.856Z,13.27
2019-04-01T11:18:33.254Z,13.56
2019-04-01T11:20:59.434Z,13.59
2019-04-01T11:23:25.761Z,14.08
2019-04-01T11:25:51.880Z,14.05
2019-04-01T11:28:18.210Z,14.17
2019-04-01T11:30:44.670Z,13.82
2019-04-01T11:33:11.117Z,13.45
2019-04-01T11:35:37.353Z,13.88
2019-04-01T11:38:03.759Z,13.81
2019-04-01T11:40:30.118Z,13.77
2019-04-01T11:42:56.928Z,13.56
2019-04-01T11:45:23.289Z,13.63
2019-04-01T11:47:49.723Z,14.19
2019-04-01T11:50:16.105Z,14.24
2019-04-01T11:52:42.517Z,14.58
2019-04-01T11:55:09.664Z,14.75
2019-04-01T11:57:36.174Z,14.39
2019-04-01T12:00:10.122Z,14.59
2019-04-01T12:02:34.665Z,14.31
2019-04-01T12:05:01.042Z,14.34
2019-04-01T12:07:27.426Z,14.33
2019-04-01T12:09:53.744Z,14.33
2019-04-01T12:12:23.813Z,14.81
2019-04-01T12:14:48.038Z,14.77
2019-04-01T12:17:14.134Z,14.88
2019-04-01T12:19:42.262Z,15.06
2019-04-01T12:22:08.645Z,14.79
2019-04-01T12:24:35.250Z,14.78
2019-04-01T12:27:01.553Z,14.58
2019-04-01T12:29:27.668Z,15.17
2019-04-01T12:31:53.796Z,16.07
2019-04-01T12:34:20.611Z,15.42
2019-04-01T12:36:48.371Z,15.48
2019-04-01T12:39:15.353Z,15.31
2019-04-01T12:41:41.428Z,15.91
2019-04-01T12:44:07.659Z,15.98
2019-04-01T12:46:34.273Z,16.28
2019-04-01T12:49:00.475Z,15.79
2019-04-01T12:51:27.068Z,15.25
2019-04-01T12:53:53.366Z,15.97
2019-04-01T12:56:19.571Z,15.19
2019-04-01T12:58:45.706Z,15.35
2019-04-01T13:01:12.006Z,15.01
2019-04-01T13:03:38.112Z,16.21
2019-04-01T13:06:04.242Z,16.27
2019-04-01T13:08:30.461Z,15.52
2019-04-01T13:10:56.835Z,16.05
2019-04-01T13:13:23.316Z,16.30
2019-04-01T13:15:49.828Z,15.96
2019-04-01T13:18:16.062Z,15.80
2019-04-01T13:20:42.364Z,15.63
2019-04-01T13:23:08.993Z,15.91
2019-04-01T13:25:35.278Z,16.15
2019-04-01T13:28:01.504Z,16.47
2019-04-01T13:30:27.738Z,15.35
2019-04-01T13:32:54.011Z,15.81
2019-04-01T13:35:20.122Z,16.25
2019-04-01T13:37:46.944Z,16.30
2019-04-01T13:40:13.421Z,15.66
2019-04-01T13:42:39.514Z,15.37
2019-04-01T13:45:05.899Z,15.80
2019-04-01T13:47:32.136Z,15.98
2019-04-01T13:49:58.258Z,16.80
2019-04-01T13:52:24.510Z,16.72
2019-04-01T13:54:50.850Z,15.32
2019-04-01T13:57:17.072Z,14.55
2019-04-01T13:59:49.570Z,15.49
2019-04-01T14:02:11.313Z,15.82
2019-04-01T14:04:37.667Z,16.11
2019-04-01T14:07:03.996Z,15.28
2019-04-01T14:09:30.961Z,15.51
2019-04-01T14:11:57.580Z,15.11
2019-04-01T14:14:23.938Z,15.38
2019-04-01T14:16:50.270Z,15.34
2019-04-01T14:19:16.647Z,15.62
2019-04-01T14:21:42.921Z,15.43
2019-04-01T14:24:09.250Z,15.31
2019-04-01T14:26:35.428Z,15.66
2019-04-01T14:29:01.535Z,15.08
2019-04-01T14:31:27.893Z,15.06
2019-04-01T14:33:54.239Z,15.00
2019-04-01T14:36:20.401Z,14.65
2019-04-01T14:38:46.745Z,14.77
2019-04-01T14:41:13.263Z,15.13
2019-04-01T14:43:40.285Z,14.35
2019-04-01T14:46:06.741Z,14.83
2019-04-01T14:48:33.102Z,14.82
2019-04-01T14:50:59.346Z,14.19
2019-04-01T14:53:25.566Z,14.69
2019-04-01T14:55:51.972Z,14.87
2019-04-01T14:58:18.211Z,14.65
2019-04-01T15:00:46.352Z,14.77
2019-04-01T15:03:12.617Z,14.98
2019-04-01T15:05:38.855Z,14.80
2019-04-01T15:08:05.179Z,15.11
2019-04-01T15:10:31.512Z,14.73
2019-04-01T15:13:05.773Z,14.59
2019-04-01T15:15:27.178Z,14.50
2019-04-01T15:17:53.283Z,14.63
2019-04-01T15:20:19.623Z,14.74
2019-04-01T15:22:45.856Z,14.77
2019-04-01T15:25:13.953Z,14.10
2019-04-01T15:27:40.156Z,14.05
2019-04-01T15:30:07.974Z,14.41
2019-04-01T15:32:34.373Z,14.74
2019-04-01T15:35:00.623Z,14.69
2019-04-01T15:37:27.041Z,14.73
2019-04-01T15:39:53.134Z,14.72
2019-04-01T15:42:19.563Z,14.63
2019-04-01T15:44:45.878Z,15.02
2019-04-01T15:47:12.330Z,14.96
2019-04-01T15:49:40.091Z,14.68
2019-04-01T15:52:07.697Z,14.87
2019-04-01T15:54:33.984Z,14.63
2019-04-01T15:57:00.457Z,14.20
2019-04-01T15:59:26.810Z,14.42
2019-04-01T16:01:54.243Z,14.79
2019-04-01T16:04:20.969Z,14.76
2019-04-01T16:06:47.164Z,14.89
2019-04-01T16:09:13.301Z,14.78
2019-04-01T16:11:39.498Z,15.18
2019-04-01T16:14:05.852Z,15.00
2019-04-01T16:16:32.075Z,14.63
2019-04-01T16:18:59.227Z,15.31
2019-04-01T16:21:26.272Z,14.98
2019-04-01T16:23:52.688Z,15.23
2019-04-01T16:26:18.917Z,15.10
2019-04-01T16:28:45.276Z,15.02
2019-04-01T16:31:11.551Z,14.49
2019-04-01T16:33:37.811Z,14.40
2019-04-01T16:36:04.144Z,14.51
2019-04-01T16:38:30.275Z,14.49
2019-04-01T16:40:57.611Z,14.41
2019-04-01T16:43:24.088Z,14.42
2019-04-01T16:45:50.373Z,14.41
2019-04-01T16:48:16.662Z,14.21
2019-04-01T16:50:43.335Z,14.06
2019-04-01T16:53:09.596Z,13.95
2019-04-01T16:55:36.265Z,13.85
2019-04-01T16:58:04.110Z,13.88
2019-04-01T17:00:30.434Z,14.10
2019-04-01T17:02:56.687Z,13.75
2019-04-01T17:05:32.010Z,13.93
2019-04-01T17:07:58.253Z,13.94
2019-04-01T17:10:24.651Z,14.01
2019-04-01T17:12:51.102Z,13.72
2019-04-01T17:15:17.647Z,13.53
2019-04-01T17:17:43.976Z,13.48
2019-04-01T17:20:10.475Z,13.58
2019-04-01T17:22:36.670Z,13.54
2019-04-01T17:25:04.857Z,13.53
2019-04-01T17:27:31.067Z,13.46
2019-04-01T17:29:57.366Z,13.23
2019-04-01T17:32:23.643Z,13.04
2019-04-01T17:34:49.810Z,12.91
2019-04-01T17:37:16.236Z,12.94
2019-04-01T17:39:42.472Z,12.84
2019-04-01T17:42:08.689Z,12.70
2019-04-01T17:44:35.061Z,12.73
2019-04-01T17:47:01.390Z,12.72
2019-04-01T17:49:28.724Z,12.78
2019-04-01T17:51:56.337Z,12.63
2019-04-01T17:54:22.848Z,12.50
2019-04-01T17:56:49.181Z,12.27
2019-04-01T17:59:15.781Z,12.46
2019-04-01T18:01:42.293Z,12.42
2019-04-01T18:04:08.845Z,12.41
2019-04-01T18:06:35.065Z,12.42
2019-04-01T18:09:02.154Z,12.36
2019-04-01T18:11:30.774Z,12.19
2019-04-01T18:13:57.121Z,12.01
2019-04-01T18:16:23.337Z,11.97
2019-04-01T18:18:49.689Z,11.96
2019-04-01T18:21:15.925Z,11.74
2019-04-01T18:23:42.326Z,11.79
2019-04-01T18:26:08.570Z,11.84
2019-04-01T18:28:35.091Z,11.68
2019-04-01T18:31:01.355Z,11.59
2019-04-01T18:33:27.554Z,11.53
2019-04-01T18:35:54.360Z,11.29
2019-04-01T18:38:21.042Z,11.42
2019-04-01T18:40:47.290Z,11.34
2019-04-01T18:43:13.624Z,11.31
2019-04-01T18:45:41.086Z,11.29
2019-04-01T18:48:07.412Z,11.29
2019-04-01T18:50:33.766Z,11.10
2019-04-01T18:53:00.006Z,11.00
2019-04-01T18:55:26.157Z,11.01
2019-04-01T18:57:52.575Z,10.92
2019-04-01T19:00:19.706Z,10.92
2019-04-01T19:02:46.150Z,10.96
2019-04-01T19:05:12.841Z,10.76
2019-04-01T19:07:39.056Z,10.76
2019-04-01T19:10:06.854Z,10.55
2019-04-01T19:12:33.371Z,10.51
2019-04-01T19:15:02.428Z,10.57
2019-04-01T19:17:27.886Z,10.57
2019-04-01T19:19:54.006Z,10.54
2019-04-01T19:22:20.334Z,10.42
2019-04-01T19:24:46.914Z,10.39
2019-04-01T19:27:13.286Z,10.35
2019-04-01T19:29:42.742Z,10.35
2019-04-01T19:32:09.429Z,10.28
2019-04-01T19:34:36.152Z,10.02
2019-04-01T19:37:03.263Z,10.08
2019-04-01T19:39:30.377Z,10.13
2019-04-01T19:41:56.878Z,10.11
2019-04-01T19:44:23.319Z,10.10
2019-04-01T19:46:49.557Z,10.06
2019-04-01T19:49:15.877Z,10.11
2019-04-01T19:51:42.275Z,9.96
2019-04-01T19:54:08.537Z,9.89
2019-04-01T19:56:34.992Z,9.81
2019-04-01T19:59:01.172Z,9.78
2019-04-01T20:01:29.331Z,9.67
2019-04-01T20:03:55.777Z,9.67
2019-04-01T20:06:22.040Z,9.65
2019-04-01T20:08:49.734Z,9.58
2019-04-01T20:11:16.190Z,9.65
2019-04-01T20:13:43.367Z,9.66
2019-04-01T20:16:10.247Z,9.46
2019-04-01T20:18:36.961Z,9.44
2019-04-01T20:21:03.430Z,9.34
2019-04-01T20:23:29.647Z,9.38
2019-04-01T20:25:55.969Z,9.33
2019-04-01T20:28:22.485Z,9.34
2019-04-01T20:30:48.603Z,9.29
2019-04-01T20:33:18.196Z,9.23
2019-04-01T20:35:43.044Z,9.18
2019-04-01T20:38:09.422Z,9.16
2019-04-01T20:40:35.744Z,9.22
2019-04-01T20:43:01.901Z,9.11
2019-04-01T20:45:28.147Z,9.02
2019-04-01T20:47:54.534Z,9.01
2019-04-01T20:50:20.829Z,8.93
2019-04-01T20:52:48.091Z,9.06
2019-04-01T20:55:14.610Z,8.92
2019-04-01T20:57:41.033Z,8.82
2019-04-01T21:00:09.319Z,8.74
2019-04-01T21:02:36.634Z,8.75
2019-04-01T21:05:07.501Z,8.69
2019-04-01T21:07:33.926Z,8.79
2019-04-01T21:10:00.269Z,8.68
2019-04-01T21:12:26.570Z,8.70
2019-04-01T21:14:56.059Z,8.75
2019-04-01T21:17:21.860Z,8.57
2019-04-01T21:19:48.111Z,8.55
2019-04-01T21:22:14.335Z,8.57
2019-04-01T21:24:40.636Z,8.58
2019-04-01T21:27:06.883Z,8.55
2019-04-01T21:29:33.158Z,8.50
2019-04-01T21:31:59.489Z,8.47
2019-04-01T21:34:25.819Z,8.43
2019-04-01T21:36:51.956Z,8.31
2019-04-01T21:39:18.096Z,8.40
2019-04-01T21:41:44.362Z,8.44
2019-04-01T21:44:10.696Z,8.40
2019-04-01T21:46:37.033Z,8.34
2019-04-01T21:49:03.382Z,8.20
2019-04-01T21:51:29.705Z,8.17
2019-04-01T21:53:55.926Z,8.08
2019-04-01T21:56:23.084Z,8.20
2019-04-01T21:58:49.885Z,8.06
2019-04-01T22:01:16.886Z,8.05
2019-04-01T22:03:44.792Z,8.04
2019-04-01T22:06:11.863Z,8.06
2019-04-01T22:08:38.096Z,7.89
2019-04-01T22:11:04.441Z,7.91
2019-04-01T22:13:30.859Z,7.89
2019-04-01T22:15:56.998Z,7.91
2019-04-01T22:18:23.109Z,7.81
2019-04-01T22:20:49.206Z,7.86
2019-04-01T22:23:15.562Z,7.85
2019-04-01T22:25:41.959Z,7.75
2019-04-01T22:28:08.192Z,7.84
2019-04-01T22:30:34.503Z,7.81
2019-04-01T22:33:00.650Z,7.81
2019-04-01T22:35:38.038Z,7.74
2019-04-01T22:37:56.224Z,7.54
2019-04-01T22:40:22.458Z,7.67
2019-04-01T22:42:48.711Z,7.63
2019-04-01T22:45:15.063Z,7.65
2019-04-01T22:47:41.304Z,7.73
2019-04-01T22:50:07.612Z,7.61
2019-04-01T22:52:35.267Z,7.49
2019-04-01T22:55:02.049Z,7.59
2019-04-01T22:57:28.340Z,7.48
2019-04-01T22:59:54.472Z,7.55
2019-04-01T23:02:21.722Z,7.46
2019-04-01T23:04:48.087Z,7.44
2019-04-01T23:07:15.308Z,7.43
2019-04-01T23:09:41.641Z,7.48
2019-04-01T23:12:07.841Z,7.39
2019-04-01T23:14:34.061Z,7.36
2019-04-01T23:17:00.271Z,7.28
2019-04-01T23:19:26.651Z,7.31
2019-04-01T23:21:52.877Z,7.29
2019-04-01T23:24:19.100Z,7.14
2019-04-01T23:26:45.345Z,7.25
2019-04-01T23:29:11.568Z,7.27
2019-04-01T23:31:38.499Z,7.31
2019-04-01T23:34:04.915Z,7.18
2019-04-01T23:36:31.184Z,7.26
2019-04-01T23:38:57.390Z,7.32
2019-04-01T23:41:23.737Z,7.15
2019-04-01T23:43:49.806Z,7.21
2019-04-01T23:46:16.038Z,7.27
2019-04-01T23:48:42.603Z,7.32
2019-04-01T23:51:08.974Z,7.23
2019-04-01T23:53:35.294Z,7.23
2019-04-01T23:56:01.584Z,7.25
2019-04-01T23:58:27.692Z,7.16
